createdAt,value
2022-08-17T00:02:25.501Z,99973.81
2022-08-17T00:07:29.202Z,99978.31
2022-08-17T00:12:40.598Z,99966.16
2022-08-17T00:17:55.204Z,99962.84
2022-08-17T00:23:06.735Z,99976.34
2022-08-17T00:28:09.478Z,99971.91
2022-08-17T00:33:17.093Z,99985.19
2022-08-17T00:38:20.232Z,99983.28
2022-08-17T00:43:29.970Z,99986.31
2022-08-17T00:48:34.631Z,99988.28
2022-08-17T00:53:42.840Z,99982.84
2022-08-17T00:58:46.035Z,99985.78
2022-08-17T01:03:51.298Z,99978.81
2022-08-17T01:08:57.944Z,99981.69
2022-08-17T01:14:00.759Z,99983.34
2022-08-17T01:19:06.941Z,99975.44
2022-08-17T01:24:11.034Z,99980.34
2022-08-17T01:29:13.533Z,99979.03
2022-08-17T01:34:18.258Z,99988.16
2022-08-17T01:39:26.707Z,99995.56
2022-08-17T01:44:29.284Z,99992.09
2022-08-17T01:49:32.090Z,99987.16
2022-08-17T01:54:37.927Z,99987.91
2022-08-17T01:59:40.732Z,99981.13
2022-08-17T02:04:43.274Z,99986.94
2022-08-17T02:09:49.373Z,99979.41
2022-08-17T02:14:55.279Z,99981.00
2022-08-17T02:19:57.759Z,99984.53
2022-08-17T02:25:02.972Z,99990.53
2022-08-17T02:30:59.055Z,99984.66
2022-08-17T02:35:29.467Z,99970.44
2022-08-17T02:40:36.456Z,99969.06
2022-08-17T02:45:39.628Z,99958.56
2022-08-17T02:50:42.143Z,99955.56
2022-08-17T02:55:46.009Z,99961.28
2022-08-17T03:00:48.787Z,99961.19
2022-08-17T03:05:53.130Z,99958.44
2022-08-17T03:10:57.662Z,99961.13
2022-08-17T03:16:00.146Z,99966.94
2022-08-17T03:21:04.508Z,99968.94
2022-08-17T03:26:12.209Z,99968.47
2022-08-17T03:31:18.508Z,99964.72
2022-08-17T03:36:21.037Z,99967.59
2022-08-17T03:41:24.843Z,99968.63
2022-08-17T03:46:45.290Z,99972.13
2022-08-17T03:52:04.503Z,99974.88
2022-08-17T03:57:11.228Z,99975.53
2022-08-17T04:02:19.749Z,99979.53
2022-08-17T04:07:24.379Z,99984.13
2022-08-17T04:12:30.866Z,99982.50
2022-08-17T04:17:33.690Z,99980.34
2022-08-17T04:22:36.150Z,99980.78
2022-08-17T04:27:40.074Z,99985.38
2022-08-17T04:33:04.386Z,99976.03
2022-08-17T04:38:19.379Z,99980.84
2022-08-17T04:43:25.822Z,99986.31
2022-08-17T04:48:36.400Z,99991.25
2022-08-17T04:53:40.533Z,99995.03
2022-08-17T04:58:44.883Z,100001.31
2022-08-17T05:03:47.323Z,100007.34
2022-08-17T05:08:49.863Z,100008.88
2022-08-17T05:13:54.154Z,100022.63
2022-08-17T05:18:58.569Z,100019.69
2022-08-17T05:24:01.059Z,100027.13
2022-08-17T05:29:09.770Z,100023.19
2022-08-17T05:34:12.198Z,100025.44
2022-08-17T05:39:16.657Z,100032.41
2022-08-17T05:44:21.066Z,100022.34
2022-08-17T05:49:28.046Z,100037.75
2022-08-17T05:54:39.883Z,100035.94
2022-08-17T05:59:51.849Z,100039.19
2022-08-17T06:05:09.095Z,100038.31
2022-08-17T06:10:18.239Z,100039.81
2022-08-17T06:15:31.312Z,100051.72
2022-08-17T06:20:39.427Z,100045.31
2022-08-17T06:25:47.188Z,100048.81
2022-08-17T06:30:59.698Z,100035.78
2022-08-17T06:36:15.786Z,100041.84
2022-08-17T06:41:26.820Z,100053.88
2022-08-17T06:46:37.674Z,100047.50
2022-08-17T06:51:42.234Z,100039.84
2022-08-17T06:56:54.566Z,100049.03
2022-08-17T07:02:05.267Z,100044.78
2022-08-17T07:07:24.954Z,100041.56
2022-08-17T07:12:37.414Z,100045.00
2022-08-17T07:17:47.498Z,100041.59
2022-08-17T07:23:00.284Z,100027.56
2022-08-17T07:28:07.840Z,100032.03
2022-08-17T07:33:14.065Z,100031.44
2022-08-17T07:38:24.161Z,100031.56
2022-08-17T07:43:31.169Z,100042.06
2022-08-17T07:48:39.174Z,100040.63
2022-08-17T07:53:42.223Z,100031.97
2022-08-17T07:58:47.368Z,100040.97
2022-08-17T08:03:52.818Z,100033.00
2022-08-17T08:08:57.205Z,100025.13
2022-08-17T08:14:28.626Z,100033.22
2022-08-17T08:19:33.459Z,100031.75
2022-08-17T08:24:59.155Z,100044.09
2022-08-17T08:30:09.620Z,100048.63
2022-08-17T08:35:23.305Z,100039.38
2022-08-17T08:40:34.419Z,100044.22
2022-08-17T08:45:45.663Z,100039.03
2022-08-17T08:50:58.733Z,100044.63
2022-08-17T08:56:07.596Z,100036.25
2022-08-17T09:01:19.294Z,100035.69
2022-08-17T09:06:39.601Z,100049.00
2022-08-17T09:12:02.497Z,100035.53
2022-08-17T09:17:12.666Z,100032.59
2022-08-17T09:22:31.279Z,100016.81
2022-08-17T09:27:39.130Z,100012.75
2022-08-17T09:32:43.992Z,100007.41
2022-08-17T09:37:57.017Z,100020.78
2022-08-17T09:43:05.092Z,100002.41
2022-08-17T09:48:14.341Z,99992.44
2022-08-17T09:53:22.428Z,99995.81
2022-08-17T09:58:38.895Z,99998.25
2022-08-17T10:04:01.756Z,99984.09
2022-08-17T10:09:15.298Z,99987.53
2022-08-17T10:14:37.873Z,99986.63
2022-08-17T10:19:57.139Z,99982.59
2022-08-17T10:25:26.028Z,99974.59
2022-08-17T10:30:36.030Z,99973.78
2022-08-17T10:35:49.820Z,99969.88
2022-08-17T10:40:59.318Z,99976.69
2022-08-17T10:46:30.845Z,99958.28
2022-08-17T10:51:39.361Z,99968.00
2022-08-17T10:56:50.461Z,99975.59
2022-08-17T11:02:05.225Z,99989.22
2022-08-17T11:07:18.369Z,99988.06
2022-08-17T11:12:36.834Z,99971.53
2022-08-17T11:18:01.622Z,99970.03
2022-08-17T11:23:23.711Z,99956.72
2022-08-17T11:28:34.367Z,99943.41
2022-08-17T11:33:58.965Z,99958.00
2022-08-17T11:39:07.031Z,99946.81
2022-08-17T11:44:30.231Z,99956.72
2022-08-17T11:50:09.977Z,99950.78
2022-08-17T11:55:50.913Z,99956.88
2022-08-17T12:00:57.890Z,99943.81
2022-08-17T12:06:05.156Z,99948.31
2022-08-17T12:11:11.791Z,99956.66
2022-08-17T12:16:18.390Z,99960.28
2022-08-17T12:21:29.992Z,99957.66
2022-08-17T12:26:34.540Z,99954.94
2022-08-17T12:31:48.098Z,99959.56
2022-08-17T12:36:52.888Z,99957.06
2022-08-17T12:42:02.179Z,99945.25
2022-08-17T12:47:19.375Z,99943.53
2022-08-17T12:52:26.925Z,99940.44
2022-08-17T12:57:33.647Z,99932.31
2022-08-17T13:02:45.072Z,99931.25
2022-08-17T13:07:47.973Z,99934.31
2022-08-17T13:12:52.415Z,99918.38
2022-08-17T13:18:04.811Z,99915.31
2022-08-17T13:23:12.428Z,99915.19
2022-08-17T13:28:29.907Z,99893.69
2022-08-17T13:33:44.520Z,99893.06
2022-08-17T13:38:50.902Z,99890.13
2022-08-17T13:43:53.781Z,99891.97
2022-08-17T13:49:04.091Z,99894.16
2022-08-17T13:54:19.682Z,99889.34
2022-08-17T13:59:55.229Z,99895.28
2022-08-17T14:05:02.032Z,99898.66
2022-08-17T14:10:13.596Z,99894.88
2022-08-17T14:15:20.523Z,99900.84
2022-08-17T14:20:24.624Z,99892.72
2022-08-17T14:25:29.637Z,99892.28
2022-08-17T14:30:32.147Z,99884.41
2022-08-17T14:35:35.985Z,99887.81
2022-08-17T14:40:39.343Z,99867.91
2022-08-17T14:45:41.827Z,99872.56
2022-08-17T14:50:46.183Z,99859.00
2022-08-17T14:55:50.848Z,99850.25
2022-08-17T15:00:53.341Z,99852.59
2022-08-17T15:05:57.436Z,99856.81
2022-08-17T15:10:59.952Z,99850.25
2022-08-17T15:16:03.263Z,99849.22
2022-08-17T15:21:09.552Z,99844.09
2022-08-17T15:26:12.210Z,99843.94
2022-08-17T15:31:15.036Z,99839.81
2022-08-17T15:36:19.320Z,99838.44
2022-08-17T15:41:22.032Z,99837.75
2022-08-17T15:46:27.950Z,99836.53
2022-08-17T15:51:33.411Z,99844.06
2022-08-17T15:56:36.019Z,99833.19
2022-08-17T16:02:16.299Z,99828.13
2022-08-17T16:07:02.418Z,99832.53
2022-08-17T16:12:13.175Z,99814.03
2022-08-17T16:17:40.206Z,99825.44
2022-08-17T16:22:43.997Z,99812.53
2022-08-17T16:27:47.610Z,99812.97
2022-08-17T16:32:51.594Z,99804.00
2022-08-17T16:37:57.094Z,99813.19
2022-08-17T16:43:00.153Z,99810.16
2022-08-17T16:48:02.686Z,99815.78
2022-08-17T16:53:08.985Z,99815.31
2022-08-17T16:58:12.078Z,99825.19
2022-08-17T17:03:19.469Z,99812.97
2022-08-17T17:08:30.431Z,99820.34
2022-08-17T17:13:39.470Z,99818.47
2022-08-17T17:18:57.287Z,99824.19
2022-08-17T17:24:06.075Z,99824.88
2022-08-17T17:29:20.958Z,99826.75
2022-08-17T17:34:26.597Z,99822.25
2022-08-17T17:39:36.367Z,99825.78
2022-08-17T17:44:41.798Z,99828.47
2022-08-17T17:49:48.543Z,99833.06
2022-08-17T17:55:02.943Z,99846.34
2022-08-17T18:00:12.715Z,99851.69
2022-08-17T18:05:28.903Z,99854.34
2022-08-17T18:10:42.770Z,99849.19
2022-08-17T18:15:51.084Z,99858.84
2022-08-17T18:21:04.464Z,99856.38
2022-08-17T18:26:08.356Z,99851.94
2022-08-17T18:31:17.920Z,99854.72
2022-08-17T18:36:29.461Z,99853.09
2022-08-17T18:41:41.278Z,99858.31
2022-08-17T18:46:43.836Z,99859.09
2022-08-17T18:51:47.209Z,99860.97
2022-08-17T18:56:52.158Z,99864.84
2022-08-17T19:07:46.202Z,99864.78
2022-08-17T19:13:00.842Z,99872.03
2022-08-17T19:18:15.694Z,99863.91
2022-08-17T19:23:24.957Z,99854.09
2022-08-17T19:28:37.830Z,99856.09
2022-08-17T19:33:40.668Z,99864.88
2022-08-17T19:38:52.987Z,99866.69
2022-08-17T19:44:13.042Z,99871.41
2022-08-17T19:49:34.507Z,99866.78
2022-08-17T19:54:52.359Z,99880.59
2022-08-17T20:00:02.359Z,99881.22
2022-08-17T20:05:12.344Z,99879.75
2022-08-17T20:10:24.454Z,99881.22
2022-08-17T20:15:30.847Z,99878.63
2022-08-17T20:20:42.443Z,99874.34
2022-08-17T20:26:04.790Z,99883.16
2022-08-17T20:31:37.083Z,99882.88
2022-08-17T20:36:59.338Z,99888.91
2022-08-17T20:42:09.869Z,99892.03
2022-08-17T20:47:21.792Z,99887.34
2022-08-17T20:52:47.769Z,99886.66
2022-08-17T20:57:50.535Z,99878.47
2022-08-17T21:03:28.094Z,99876.19
2022-08-17T21:08:58.830Z,99882.44
2022-08-17T21:14:09.115Z,99898.72
2022-08-17T21:19:54.220Z,99896.78
2022-08-17T21:25:14.390Z,99899.38
2022-08-17T21:30:44.636Z,99902.47
2022-08-17T21:35:50.623Z,99911.25
2022-08-17T21:40:55.354Z,99915.22
2022-08-17T21:46:02.312Z,99905.97
2022-08-17T21:51:12.174Z,99897.69
2022-08-17T21:56:25.021Z,99901.50
2022-08-17T22:01:30.567Z,99910.94
2022-08-17T22:06:38.399Z,99922.00
2022-08-17T22:12:01.164Z,99920.06
2022-08-17T22:17:09.646Z,99911.50
2022-08-17T22:22:26.262Z,99930.69
2022-08-17T22:27:53.529Z,99934.53
2022-08-17T22:32:56.523Z,99939.06
2022-08-17T22:38:25.613Z,99933.09
2022-08-17T22:43:31.204Z,99936.59
2022-08-17T22:48:38.856Z,99942.25
2022-08-17T22:54:04.207Z,99927.63
2022-08-17T22:59:20.958Z,99936.19
2022-08-17T23:04:32.615Z,99918.81
2022-08-17T23:09:35.838Z,99922.41
2022-08-17T23:14:45.793Z,99920.78
2022-08-17T23:19:48.480Z,99927.97
2022-08-17T23:24:51.233Z,99930.84
2022-08-17T23:29:55.597Z,99927.34
2022-08-17T23:34:59.182Z,99924.19
2022-08-17T23:40:01.703Z,99921.69
2022-08-17T23:45:07.808Z,99918.06
2022-08-17T23:50:11.080Z,99917.47
2022-08-17T23:55:16.284Z,99919.19
